createdAt,value
2018-05-08T00:00:30.411Z,17.75
2018-05-08T00:02:58.404Z,17.73
2018-05-08T00:05:25.978Z,17.70
2018-05-08T00:07:53.556Z,17.69
2018-05-08T00:10:21.207Z,17.69
2018-05-08T00:12:49.058Z,17.67
2018-05-08T00:15:16.987Z,17.63
2018-05-08T00:17:44.843Z,17.59
2018-05-08T00:20:12.480Z,17.56
2018-05-08T00:22:40.304Z,17.48
2018-05-08T00:25:07.968Z,17.43
2018-05-08T00:27:35.599Z,17.39
2018-05-08T00:30:03.606Z,17.37
2018-05-08T00:32:31.160Z,17.34
2018-05-08T00:34:58.730Z,17.29
2018-05-08T00:37:26.311Z,17.26
2018-05-08T00:39:53.936Z,17.20
2018-05-08T00:42:21.640Z,17.17
2018-05-08T00:44:49.506Z,17.12
2018-05-08T00:47:17.058Z,17.09
2018-05-08T00:49:44.648Z,17.06
2018-05-08T00:52:12.420Z,17.04
2018-05-08T00:54:51.831Z,17.03
2018-05-08T00:57:19.858Z,17.01
2018-05-08T00:59:47.656Z,16.96
2018-05-08T01:02:15.215Z,16.92
2018-05-08T01:04:42.822Z,16.86
2018-05-08T01:07:10.466Z,16.83
2018-05-08T01:09:38.243Z,16.78
2018-05-08T01:12:06.040Z,16.74
2018-05-08T01:14:33.594Z,16.68
2018-05-08T01:17:01.299Z,16.65
2018-05-08T01:19:28.819Z,16.61
2018-05-08T01:21:56.411Z,16.55
2018-05-08T01:24:23.991Z,16.52
2018-05-08T01:26:51.623Z,16.50
2018-05-08T01:29:19.216Z,16.48
2018-05-08T01:31:46.770Z,16.45
2018-05-08T01:34:14.343Z,16.37
2018-05-08T01:36:41.996Z,16.33
2018-05-08T01:39:09.613Z,16.31
2018-05-08T01:41:37.246Z,16.28
2018-05-08T01:44:04.866Z,16.26
2018-05-08T01:46:32.559Z,16.22
2018-05-08T01:49:00.161Z,16.22
2018-05-08T01:51:27.707Z,16.23
2018-05-08T01:53:55.547Z,16.23
2018-05-08T01:56:23.134Z,16.22
2018-05-08T01:58:50.731Z,16.20
2018-05-08T02:01:18.379Z,16.19
2018-05-08T02:03:46.047Z,16.16
2018-05-08T02:06:13.715Z,16.13
2018-05-08T02:08:41.440Z,16.09
2018-05-08T02:11:09.356Z,16.06
2018-05-08T02:13:36.911Z,16.03
2018-05-08T02:16:04.486Z,15.98
2018-05-08T02:18:32.209Z,15.95
2018-05-08T02:21:00.066Z,15.93
2018-05-08T02:23:27.858Z,15.90
2018-05-08T02:25:55.839Z,15.86
2018-05-08T02:28:23.375Z,15.83
2018-05-08T02:30:50.987Z,15.79
2018-05-08T02:33:18.958Z,15.75
2018-05-08T02:35:46.726Z,15.70
2018-05-08T02:38:14.282Z,15.68
2018-05-08T02:40:42.115Z,15.66
2018-05-08T02:43:10.145Z,15.62
2018-05-08T02:45:37.691Z,15.63
2018-05-08T02:48:05.251Z,15.55
2018-05-08T02:50:32.873Z,15.55
2018-05-08T02:53:00.488Z,15.48
2018-05-08T02:55:28.060Z,15.47
2018-05-08T02:57:55.964Z,15.44
2018-05-08T03:00:23.573Z,15.42
2018-05-08T03:02:52.164Z,15.40
2018-05-08T03:05:19.787Z,15.37
2018-05-08T03:07:47.830Z,15.33
2018-05-08T03:10:15.396Z,15.31
2018-05-08T03:12:42.956Z,15.30
2018-05-08T03:15:10.539Z,15.29
2018-05-08T03:17:38.553Z,15.26
2018-05-08T03:20:06.165Z,15.25
2018-05-08T03:22:33.729Z,15.24
2018-05-08T03:25:01.284Z,15.23
2018-05-08T03:27:28.974Z,15.19
2018-05-08T03:29:56.553Z,15.22
2018-05-08T03:32:25.513Z,15.21
2018-05-08T03:34:53.694Z,15.19
2018-05-08T03:37:21.793Z,15.18
2018-05-08T03:39:49.864Z,15.15
2018-05-08T03:42:17.987Z,15.14
2018-05-08T03:44:45.641Z,15.17
2018-05-08T03:47:13.220Z,15.14
2018-05-08T03:49:40.886Z,15.13
2018-05-08T03:52:08.820Z,15.08
2018-05-08T03:54:36.455Z,15.07
2018-05-08T03:57:04.011Z,15.10
2018-05-08T03:59:31.705Z,15.07
2018-05-08T04:02:11.212Z,15.07
2018-05-08T04:04:50.844Z,15.09
2018-05-08T04:07:31.247Z,15.03
2018-05-08T04:09:59.243Z,15.03
2018-05-08T04:12:27.033Z,15.02
2018-05-08T04:14:54.609Z,14.99
2018-05-08T04:17:22.502Z,15.00
2018-05-08T04:19:50.077Z,15.01
2018-05-08T04:22:17.669Z,14.99
2018-05-08T04:24:45.255Z,14.99
2018-05-08T04:27:12.826Z,14.95
2018-05-08T04:29:40.388Z,14.97
2018-05-08T04:32:08.249Z,14.99
2018-05-08T04:34:35.915Z,14.99
2018-05-08T04:37:03.517Z,15.00
2018-05-08T04:39:31.117Z,15.02
2018-05-08T04:41:58.757Z,15.04
2018-05-08T04:44:26.816Z,15.06
2018-05-08T04:46:55.050Z,15.10
2018-05-08T04:49:22.907Z,15.14
2018-05-08T04:51:50.930Z,15.18
2018-05-08T04:54:18.972Z,15.23
2018-05-08T04:56:47.475Z,15.25
2018-05-08T04:59:15.771Z,15.31
2018-05-08T05:01:44.090Z,15.37
2018-05-08T05:04:12.119Z,15.41
2018-05-08T05:06:39.717Z,15.48
2018-05-08T05:09:07.296Z,15.55
2018-05-08T05:11:35.000Z,15.64
2018-05-08T05:14:02.607Z,15.71
2018-05-08T05:16:30.183Z,15.77
2018-05-08T05:18:57.980Z,15.86
2018-05-08T05:21:25.585Z,15.91
2018-05-08T05:23:53.149Z,15.98
2018-05-08T05:26:20.727Z,16.06
2018-05-08T05:28:48.316Z,16.17
2018-05-08T05:31:16.283Z,16.26
2018-05-08T05:33:43.855Z,16.38
2018-05-08T05:36:12.175Z,16.49
2018-05-08T05:38:39.813Z,16.57
2018-05-08T05:41:07.405Z,16.66
2018-05-08T05:43:35.104Z,16.73
2018-05-08T05:46:02.732Z,16.85
2018-05-08T05:48:30.409Z,16.95
2018-05-08T05:50:58.051Z,17.08
2018-05-08T05:53:25.724Z,17.21
2018-05-08T05:55:53.576Z,17.31
2018-05-08T05:58:21.136Z,17.43
2018-05-08T06:00:48.871Z,17.59
2018-05-08T06:03:16.549Z,17.67
2018-05-08T06:05:44.505Z,17.83
2018-05-08T06:08:12.159Z,17.94
2018-05-08T06:10:39.785Z,18.05
2018-05-08T06:13:07.444Z,18.17
2018-05-08T06:15:35.097Z,18.28
2018-05-08T06:18:02.673Z,18.37
2018-05-08T06:20:30.478Z,18.51
2018-05-08T06:22:58.019Z,18.64
2018-05-08T06:25:25.880Z,18.72
2018-05-08T06:27:53.569Z,18.78
2018-05-08T06:30:21.135Z,18.86
2018-05-08T06:32:48.702Z,18.98
2018-05-08T06:35:16.707Z,19.07
2018-05-08T06:37:44.376Z,19.23
2018-05-08T06:40:11.946Z,19.33
2018-05-08T06:42:39.957Z,19.46
2018-05-08T06:45:07.525Z,19.56
2018-05-08T06:47:35.186Z,19.66
2018-05-08T06:50:03.093Z,19.76
2018-05-08T06:52:30.715Z,19.85
2018-05-08T06:54:58.553Z,20.05
2018-05-08T06:57:26.148Z,20.20
2018-05-08T06:59:53.745Z,20.32
2018-05-08T07:02:21.488Z,20.47
2018-05-08T07:04:49.069Z,20.62
2018-05-08T07:07:16.897Z,20.74
2018-05-08T07:09:44.768Z,20.87
2018-05-08T07:12:12.383Z,21.02
2018-05-08T07:14:40.036Z,21.04
2018-05-08T07:17:07.880Z,21.13
2018-05-08T07:19:35.457Z,21.27
2018-05-08T07:22:03.085Z,21.42
2018-05-08T07:24:30.762Z,21.52
2018-05-08T07:26:58.727Z,21.61
2018-05-08T07:29:26.532Z,21.73
2018-05-08T07:31:54.416Z,21.85
2018-05-08T07:34:21.988Z,22.04
2018-05-08T07:36:49.873Z,22.22
2018-05-08T07:39:17.706Z,22.30
2018-05-08T07:41:45.278Z,22.37
2018-05-08T07:44:12.856Z,22.45
2018-05-08T07:46:40.551Z,22.47
2018-05-08T07:49:08.560Z,22.60
2018-05-08T07:51:36.162Z,22.67
2018-05-08T07:54:03.717Z,22.81
2018-05-08T07:56:31.313Z,22.85
2018-05-08T07:58:58.871Z,22.99
2018-05-08T08:01:26.540Z,23.06
2018-05-08T08:03:54.127Z,23.19
2018-05-08T08:06:21.676Z,23.29
2018-05-08T08:08:49.499Z,23.38
2018-05-08T08:11:17.141Z,23.51
2018-05-08T08:13:44.916Z,23.59
2018-05-08T08:16:12.474Z,23.72
2018-05-08T08:18:40.084Z,23.89
2018-05-08T08:21:07.727Z,24.00
2018-05-08T08:23:35.365Z,24.05
2018-05-08T08:26:02.956Z,24.13
2018-05-08T08:28:30.541Z,24.22
2018-05-08T08:30:58.133Z,24.30
2018-05-08T08:33:25.786Z,24.42
2018-05-08T08:35:53.368Z,24.54
2018-05-08T08:38:21.197Z,24.66
2018-05-08T08:40:48.830Z,24.72
2018-05-08T08:43:16.401Z,24.78
2018-05-08T08:45:44.034Z,24.86
2018-05-08T08:48:11.636Z,24.98
2018-05-08T08:50:39.204Z,24.89
2018-05-08T08:53:06.805Z,24.99
2018-05-08T08:55:34.780Z,25.16
2018-05-08T08:58:02.403Z,25.49
2018-05-08T09:00:29.999Z,25.66
2018-05-08T09:02:57.565Z,25.77
2018-05-08T09:05:25.261Z,25.96
2018-05-08T09:07:52.838Z,26.17
2018-05-08T09:10:20.444Z,26.38
2018-05-08T09:12:48.293Z,26.51
2018-05-08T09:15:15.887Z,26.63
2018-05-08T09:17:43.520Z,26.79
2018-05-08T09:20:11.114Z,26.97
2018-05-08T09:22:38.729Z,27.11
2018-05-08T09:25:06.531Z,27.12
2018-05-08T09:27:34.798Z,27.10
2018-05-08T09:30:02.381Z,27.16
2018-05-08T09:32:30.012Z,27.23
2018-05-08T09:34:57.947Z,27.27
2018-05-08T09:37:25.533Z,27.32
2018-05-08T09:39:53.188Z,27.39
2018-05-08T09:42:20.791Z,27.54
2018-05-08T09:44:48.412Z,27.66
2018-05-08T09:47:16.016Z,27.85
2018-05-08T09:49:43.969Z,27.98
2018-05-08T09:52:12.219Z,28.13
2018-05-08T09:54:39.808Z,28.26
2018-05-08T09:57:07.429Z,28.35
2018-05-08T09:59:35.033Z,28.45
2018-05-08T10:02:02.686Z,28.41
2018-05-08T10:04:30.246Z,28.67
2018-05-08T10:06:57.815Z,28.73
2018-05-08T10:09:25.470Z,28.88
2018-05-08T10:11:53.556Z,29.06
2018-05-08T10:14:21.141Z,29.21
2018-05-08T10:16:48.782Z,29.38
2018-05-08T10:19:16.367Z,29.63
2018-05-08T10:21:43.993Z,29.77
2018-05-08T10:24:11.967Z,30.00
2018-05-08T10:26:39.559Z,30.25
2018-05-08T10:29:07.131Z,30.35
2018-05-08T10:31:34.781Z,30.23
2018-05-08T10:34:02.566Z,30.28
2018-05-08T10:36:30.158Z,30.57
2018-05-08T10:38:57.728Z,30.68
2018-05-08T10:41:25.474Z,30.72
2018-05-08T10:43:53.052Z,30.80
2018-05-08T10:46:20.696Z,30.88
2018-05-08T10:48:48.584Z,30.82
2018-05-08T10:51:16.184Z,30.93
2018-05-08T10:53:44.140Z,31.16
2018-05-08T10:56:11.699Z,31.19
2018-05-08T10:58:39.354Z,31.38
2018-05-08T11:01:06.984Z,31.67
2018-05-08T11:03:34.788Z,31.71
2018-05-08T11:06:03.031Z,31.67
2018-05-08T11:08:30.577Z,31.76
2018-05-08T11:10:58.142Z,31.92
2018-05-08T11:13:26.130Z,31.97
2018-05-08T11:15:53.722Z,32.06
2018-05-08T11:18:21.283Z,32.11
2018-05-08T11:20:49.289Z,32.07
2018-05-08T11:23:16.906Z,31.87
2018-05-08T11:25:44.457Z,31.91
2018-05-08T11:28:12.063Z,32.10
2018-05-08T11:30:39.752Z,32.05
2018-05-08T11:33:07.302Z,31.91
2018-05-08T11:35:34.887Z,32.00
2018-05-08T11:38:02.460Z,32.24
2018-05-08T11:40:30.052Z,32.34
2018-05-08T11:42:57.724Z,32.46
2018-05-08T11:45:25.288Z,32.68
2018-05-08T11:47:52.984Z,32.87
2018-05-08T11:50:20.538Z,32.92
2018-05-08T11:52:48.134Z,32.67
2018-05-08T11:55:15.827Z,32.72
2018-05-08T11:57:43.417Z,32.67
2018-05-08T12:00:11.120Z,32.96
2018-05-08T12:02:38.837Z,33.16
2018-05-08T12:05:06.332Z,33.09
2018-05-08T12:07:33.907Z,32.86
2018-05-08T12:10:01.521Z,33.06
2018-05-08T12:12:29.076Z,33.15
2018-05-08T12:14:56.734Z,33.33
2018-05-08T12:17:24.298Z,33.47
2018-05-08T12:19:52.091Z,33.43
2018-05-08T12:22:19.679Z,33.38
2018-05-08T12:24:47.236Z,33.47
2018-05-08T12:27:15.272Z,33.91
2018-05-08T12:29:42.905Z,34.33
2018-05-08T12:32:10.479Z,34.27
2018-05-08T12:34:38.372Z,34.32
2018-05-08T12:37:06.183Z,34.45
2018-05-08T12:39:33.961Z,34.45
2018-05-08T12:42:01.611Z,34.12
2018-05-08T12:44:29.252Z,34.30
2018-05-08T12:46:56.871Z,34.50
2018-05-08T12:49:24.446Z,34.75
2018-05-08T12:51:52.114Z,34.69
2018-05-08T12:54:19.692Z,34.20
2018-05-08T12:56:47.313Z,34.19
2018-05-08T12:59:15.021Z,34.21
2018-05-08T13:01:42.696Z,34.29
2018-05-08T13:04:10.337Z,34.37
2018-05-08T13:06:37.925Z,34.40
2018-05-08T13:09:06.444Z,34.37
2018-05-08T13:11:34.225Z,34.49
2018-05-08T13:14:01.851Z,34.69
2018-05-08T13:16:29.496Z,34.63
2018-05-08T13:18:57.084Z,34.79
2018-05-08T13:21:24.745Z,34.79
2018-05-08T13:23:52.607Z,34.41
2018-05-08T13:26:20.255Z,34.32
2018-05-08T13:28:47.826Z,34.39
2018-05-08T13:31:15.467Z,34.29
2018-05-08T13:33:43.405Z,34.08
2018-05-08T13:36:11.081Z,34.02
2018-05-08T13:38:38.734Z,34.06
2018-05-08T13:41:06.319Z,34.08
2018-05-08T13:43:34.001Z,34.19
2018-05-08T13:46:01.670Z,34.34
2018-05-08T13:48:29.290Z,34.44
2018-05-08T13:50:57.243Z,34.48
2018-05-08T13:53:24.804Z,34.59
2018-05-08T13:55:52.368Z,34.51
2018-05-08T13:58:20.030Z,34.56
2018-05-08T14:00:47.633Z,34.49
2018-05-08T14:03:15.219Z,34.59
2018-05-08T14:05:42.779Z,34.65
2018-05-08T14:08:10.783Z,34.55
2018-05-08T14:10:38.574Z,34.22
2018-05-08T14:13:06.468Z,34.23
2018-05-08T14:15:33.800Z,34.13
2018-05-08T14:18:01.991Z,34.01
2018-05-08T14:20:29.783Z,34.16
2018-05-08T14:22:57.353Z,34.29
2018-05-08T14:25:25.238Z,34.16
2018-05-08T14:27:52.869Z,33.87
2018-05-08T14:30:20.432Z,33.75
2018-05-08T14:32:48.070Z,33.47
2018-05-08T14:35:15.975Z,33.73
2018-05-08T14:37:44.287Z,33.89
2018-05-08T14:40:11.985Z,33.85
2018-05-08T14:42:39.534Z,33.98
2018-05-08T14:45:07.090Z,33.78
2018-05-08T14:47:34.792Z,33.51
2018-05-08T14:50:02.357Z,33.50
2018-05-08T14:52:29.913Z,33.47
2018-05-08T14:54:57.573Z,33.54
2018-05-08T14:57:25.292Z,33.56
2018-05-08T14:59:53.039Z,33.52
2018-05-08T15:02:20.752Z,33.76
2018-05-08T15:04:48.547Z,33.87
2018-05-08T15:07:16.356Z,33.80
2018-05-08T15:09:43.974Z,33.56
2018-05-08T15:12:11.542Z,33.51
2018-05-08T15:14:39.090Z,33.42
2018-05-08T15:17:07.088Z,33.25
2018-05-08T15:19:34.635Z,33.29
2018-05-08T15:22:02.549Z,33.51
2018-05-08T15:24:30.143Z,33.57
2018-05-08T15:26:57.750Z,33.56
2018-05-08T15:29:25.401Z,33.57
2018-05-08T15:31:53.489Z,33.52
2018-05-08T15:34:21.080Z,33.53
2018-05-08T15:36:48.878Z,33.38
2018-05-08T15:39:16.445Z,33.18
2018-05-08T15:41:44.050Z,33.22
2018-05-08T15:44:11.686Z,33.17
2018-05-08T15:46:39.622Z,33.18
2018-05-08T15:49:07.232Z,33.21
2018-05-08T15:51:34.779Z,33.26
2018-05-08T15:54:02.417Z,33.34
2018-05-08T15:56:30.084Z,33.21
2018-05-08T15:58:57.640Z,33.01
2018-05-08T16:01:25.340Z,32.98
2018-05-08T16:03:53.227Z,32.80
2018-05-08T16:06:20.835Z,32.73
2018-05-08T16:08:48.593Z,32.70
2018-05-08T16:11:16.149Z,32.65
2018-05-08T16:13:43.704Z,32.77
2018-05-08T16:16:11.294Z,32.85
2018-05-08T16:18:39.373Z,32.66
2018-05-08T16:21:07.203Z,32.61
2018-05-08T16:23:34.833Z,32.65
2018-05-08T16:26:02.590Z,32.38
2018-05-08T16:28:30.219Z,32.01
2018-05-08T16:30:58.020Z,31.94
2018-05-08T16:33:25.595Z,31.86
2018-05-08T16:35:53.175Z,31.89
2018-05-08T16:38:20.902Z,31.71
2018-05-08T16:40:48.463Z,31.63
2018-05-08T16:43:16.047Z,31.63
2018-05-08T16:45:43.702Z,31.58
2018-05-08T16:48:11.296Z,31.23
2018-05-08T16:50:39.200Z,31.18
2018-05-08T16:53:06.750Z,31.21
2018-05-08T16:55:34.325Z,31.19
2018-05-08T16:58:01.941Z,31.08
2018-05-08T17:00:29.607Z,30.98
2018-05-08T17:02:57.195Z,30.92
2018-05-08T17:05:24.770Z,30.89
2018-05-08T17:07:52.374Z,30.83
2018-05-08T17:10:20.189Z,30.66
2018-05-08T17:12:48.480Z,30.63
2018-05-08T17:15:16.037Z,30.53
2018-05-08T17:17:43.848Z,30.33
2018-05-08T17:20:11.463Z,30.13
2018-05-08T17:22:39.364Z,30.05
2018-05-08T17:25:06.939Z,30.04
2018-05-08T17:27:34.518Z,30.03
2018-05-08T17:30:02.276Z,29.81
2018-05-08T17:32:29.853Z,29.71
2018-05-08T17:34:57.421Z,29.56
2018-05-08T17:37:25.227Z,29.41
2018-05-08T17:39:52.961Z,29.31
2018-05-08T17:42:20.522Z,29.21
2018-05-08T17:44:48.079Z,29.21
2018-05-08T17:47:15.668Z,29.27
2018-05-08T17:49:43.481Z,29.34
2018-05-08T17:52:11.241Z,29.27
2018-05-08T17:54:38.804Z,29.24
2018-05-08T17:57:06.438Z,29.17
2018-05-08T17:59:34.004Z,28.99
2018-05-08T18:02:07.270Z,28.81
2018-05-08T18:04:34.899Z,28.73
2018-05-08T18:07:02.522Z,28.61
2018-05-08T18:09:30.543Z,28.57
2018-05-08T18:11:58.358Z,28.49
2018-05-08T18:14:25.981Z,28.42
2018-05-08T18:16:53.583Z,28.23
2018-05-08T18:19:21.181Z,28.04
2018-05-08T18:21:48.748Z,27.84
2018-05-08T18:24:16.331Z,27.69
2018-05-08T18:26:43.897Z,27.54
2018-05-08T18:29:11.843Z,27.42
2018-05-08T18:31:39.439Z,27.27
2018-05-08T18:34:07.004Z,27.18
2018-05-08T18:36:34.786Z,27.12
2018-05-08T18:39:02.393Z,27.11
2018-05-08T18:41:30.102Z,27.06
2018-05-08T18:43:57.750Z,26.99
2018-05-08T18:46:25.389Z,26.92
2018-05-08T18:48:53.044Z,26.87
2018-05-08T18:51:20.616Z,26.77
2018-05-08T18:53:48.283Z,26.69
2018-05-08T18:56:16.136Z,26.56
2018-05-08T18:58:43.773Z,26.42
2018-05-08T19:01:11.444Z,26.27
2018-05-08T19:03:39.049Z,26.15
2018-05-08T19:06:06.612Z,26.09
2018-05-08T19:08:34.282Z,26.01
2018-05-08T19:11:07.558Z,25.88
2018-05-08T19:13:35.112Z,25.77
2018-05-08T19:16:03.830Z,25.66
2018-05-08T19:18:36.992Z,25.47
2018-05-08T19:21:04.860Z,25.36
2018-05-08T19:23:32.555Z,25.18
2018-05-08T19:26:00.123Z,25.09
2018-05-08T19:28:33.091Z,24.97
2018-05-08T19:31:00.643Z,24.93
2018-05-08T19:33:28.237Z,24.83
2018-05-08T19:36:01.422Z,24.75
2018-05-08T19:38:29.248Z,24.70
2018-05-08T19:40:56.877Z,24.64
2018-05-08T19:43:24.455Z,24.56
2018-05-08T19:45:52.097Z,24.42
2018-05-08T19:48:19.642Z,24.36
2018-05-08T19:50:47.733Z,24.31
2018-05-08T19:53:15.287Z,24.29
2018-05-08T19:55:42.860Z,24.26
2018-05-08T19:58:10.450Z,24.19
2018-05-08T20:00:38.091Z,24.05
2018-05-08T20:03:05.756Z,23.96
2018-05-08T20:05:33.351Z,23.87
2018-05-08T20:08:01.824Z,23.77
2018-05-08T20:10:29.399Z,23.64
2018-05-08T20:12:57.212Z,23.56
2018-05-08T20:15:24.823Z,23.53
2018-05-08T20:17:52.382Z,23.44
2018-05-08T20:20:19.937Z,23.40
2018-05-08T20:22:47.602Z,23.34
2018-05-08T20:25:15.178Z,23.30
2018-05-08T20:27:42.813Z,23.23
2018-05-08T20:30:10.375Z,23.15
2018-05-08T20:32:38.034Z,23.10
2018-05-08T20:35:05.624Z,23.02
2018-05-08T20:37:33.181Z,22.96
2018-05-08T20:40:00.940Z,22.85
2018-05-08T20:42:28.501Z,22.73
2018-05-08T20:44:56.090Z,22.64
2018-05-08T20:47:23.692Z,22.57
2018-05-08T20:49:51.850Z,22.51
2018-05-08T20:52:19.550Z,22.49
2018-05-08T20:54:47.111Z,22.44
2018-05-08T20:57:14.913Z,22.37
2018-05-08T20:59:42.528Z,22.26
2018-05-08T21:02:10.082Z,22.21
2018-05-08T21:04:37.748Z,22.15
2018-05-08T21:07:05.313Z,22.08
2018-05-08T21:09:33.136Z,22.07
2018-05-08T21:12:00.928Z,22.04
2018-05-08T21:14:28.588Z,21.98
2018-05-08T21:16:56.220Z,21.95
2018-05-08T21:19:24.087Z,21.90
2018-05-08T21:21:51.986Z,21.85
2018-05-08T21:24:19.588Z,21.81
2018-05-08T21:26:47.208Z,21.74
2018-05-08T21:29:20.717Z,21.68
2018-05-08T21:31:48.349Z,21.64
2018-05-08T21:34:15.934Z,21.59
2018-05-08T21:36:43.526Z,21.55
2018-05-08T21:39:11.085Z,21.49
2018-05-08T21:41:38.698Z,21.44
2018-05-08T21:44:06.263Z,21.35
2018-05-08T21:46:34.159Z,21.29
2018-05-08T21:49:01.771Z,21.25
2018-05-08T21:51:29.335Z,21.21
2018-05-08T21:53:56.916Z,21.15
2018-05-08T21:56:24.535Z,21.12
2018-05-08T21:58:52.226Z,21.08
2018-05-08T22:01:20.171Z,21.04
2018-05-08T22:03:47.796Z,20.96
2018-05-08T22:06:15.532Z,20.90
2018-05-08T22:08:43.079Z,20.88
2018-05-08T22:11:10.668Z,20.85
2018-05-08T22:13:38.551Z,20.77
2018-05-08T22:16:06.144Z,20.74
2018-05-08T22:18:33.843Z,20.68
2018-05-08T22:21:01.503Z,20.63
2018-05-08T22:23:29.083Z,20.60
2018-05-08T22:25:56.731Z,20.53
2018-05-08T22:28:24.459Z,20.50
2018-05-08T22:30:52.045Z,20.47
2018-05-08T22:33:19.641Z,20.38
2018-05-08T22:35:47.573Z,20.34
2018-05-08T22:38:15.191Z,20.33
2018-05-08T22:40:42.759Z,20.27
2018-05-08T22:43:10.393Z,20.24
2018-05-08T22:45:37.966Z,20.22
2018-05-08T22:48:05.611Z,20.16
2018-05-08T22:50:33.250Z,20.12
2018-05-08T22:53:00.867Z,20.07
2018-05-08T22:55:28.563Z,20.03
2018-05-08T22:57:56.190Z,19.99
2018-05-08T23:00:23.907Z,19.97
2018-05-08T23:02:51.651Z,19.90
2018-05-08T23:05:19.271Z,19.85
2018-05-08T23:07:46.837Z,19.80
2018-05-08T23:10:14.644Z,19.78
2018-05-08T23:12:42.213Z,19.73
2018-05-08T23:15:09.816Z,19.68
2018-05-08T23:17:37.603Z,19.64
2018-05-08T23:20:05.157Z,19.62
2018-05-08T23:22:32.781Z,19.59
2018-05-08T23:25:00.417Z,19.55
2018-05-08T23:27:28.021Z,19.50
2018-05-08T23:29:55.592Z,19.42
2018-05-08T23:32:23.220Z,19.38
2018-05-08T23:34:50.848Z,19.37
2018-05-08T23:37:18.837Z,19.35
2018-05-08T23:39:46.467Z,19.31
2018-05-08T23:42:14.170Z,19.28
2018-05-08T23:44:41.789Z,19.26
2018-05-08T23:47:09.680Z,19.23
2018-05-08T23:49:37.622Z,19.16
2018-05-08T23:52:05.162Z,19.16
2018-05-08T23:54:32.755Z,19.12
2018-05-08T23:57:00.472Z,19.10
2018-05-08T23:59:28.095Z,19.07
